Time;durP1;ratioP1;P1;durP2;ratioP2;P2;SDS_P1;SDS_P2;PMS_P1;PMS_P2;Temp;Humidity;BMP_temperature;BMP_pressure;BME280_temperature;BME280_humidity;BME280_pressure;Samples;Min_cycle;Max_cycle;Signal;HPM_P1;HPM_P2
2022/10/30 00:01:19;;;;;;;15.53;7.20;;;11.70;93.50;;;11.92;61.47;95728.75;5044753;28;20906;-55
2022/10/30 00:03:47;;;;;;;10.70;7.77;;;11.70;93.70;;;11.92;61.48;95714.72;5046211;28;20540;-55
2022/10/30 00:06:14;;;;;;;12.67;8.37;;;11.70;93.80;;;11.92;61.24;95709.44;5041828;28;20448;-54
2022/10/30 00:08:41;;;;;;;10.13;6.70;;;11.80;93.70;;;11.92;61.28;95712.06;5045143;28;20550;-55
2022/10/30 00:11:09;;;;;;;9.23;7.30;;;11.70;93.80;;;11.91;61.55;95710.41;5046182;28;20452;-53
2022/10/30 00:13:38;;;;;;;13.13;7.27;;;11.70;94.00;;;11.90;61.85;95712.19;5044452;28;20541;-56
2022/10/30 00:16:07;;;;;;;9.10;7.33;;;11.70;94.00;;;11.92;61.57;95727.91;5043324;28;20957;-55
2022/10/30 00:18:35;;;;;;;12.23;7.80;;;11.70;94.00;;;11.90;61.82;95721.91;5046885;28;20468;-54
2022/10/30 00:21:08;;;;;;;7.80;7.10;;;11.70;94.10;;;11.88;61.74;95732.56;5044215;28;20514;-54
2022/10/30 00:23:35;;;;;;;9.40;6.50;;;11.70;94.00;;;11.84;61.42;95726.72;5039441;28;20471;-58
2022/10/30 00:26:05;;;;;;;13.07;7.83;;;11.70;94.00;;;11.83;61.26;95726.84;5045744;28;20456;-54
2022/10/30 00:28:32;;;;;;;9.00;7.43;;;11.60;93.90;;;11.82;61.48;95722.56;5040389;28;21012;-55
2022/10/30 00:31:02;;;;;;;7.57;6.80;;;11.70;94.00;;;11.79;61.74;95723.63;5042579;28;20506;-54
2022/10/30 00:33:29;;;;;;;8.13;6.90;;;11.60;94.10;;;11.76;61.58;95726.53;5045648;28;21118;-53
2022/10/30 00:35:56;;;;;;;10.33;7.87;;;11.60;94.00;;;11.74;61.72;95724.97;5042026;28;20452;-55
2022/10/30 00:38:23;;;;;;;13.60;7.50;;;11.60;94.20;;;11.71;61.85;95726.06;5039982;28;20494;-55
2022/10/30 00:40:51;;;;;;;9.23;7.30;;;11.50;94.20;;;11.68;61.73;95726.31;5038956;28;20451;-55
2022/10/30 00:43:33;;;;;;;18.00;8.53;;;11.50;94.10;;;11.66;61.88;95722.94;5044967;28;20482;-55
2022/10/30 00:46:06;;;;;;;12.47;8.23;;;11.50;94.10;;;11.65;62.48;95716.84;5040201;28;20444;-55
2022/10/30 00:48:33;;;;;;;12.47;7.90;;;11.50;94.70;;;11.66;61.83;95715.91;5042925;28;20473;-56
2022/10/30 00:51:00;;;;;;;23.63;9.27;;;11.50;94.30;;;11.64;61.38;95714.34;5046638;28;20485;-55
2022/10/30 00:53:27;;;;;;;19.63;8.50;;;11.50;94.10;;;11.61;61.50;95714.59;5043911;28;21112;-54
2022/10/30 00:55:56;;;;;;;13.40;9.97;;;11.50;94.00;;;11.57;61.57;95714.03;5038044;28;20462;-58
2022/10/30 00:58:26;;;;;;;15.63;9.17;;;11.40;94.10;;;11.56;61.68;95708.88;5044922;28;21064;-54
2022/10/30 01:00:54;;;;;;;16.10;9.17;;;11.40;94.50;;;11.56;61.78;95706.25;5043498;28;21037;-56
2022/10/30 01:03:23;;;;;;;15.33;9.30;;;11.40;94.40;;;11.55;61.81;95697.47;5041786;28;20460;-54
2022/10/30 01:05:53;;;;;;;13.70;8.83;;;11.40;94.20;;;11.52;61.84;95700.38;5043961;28;20440;-53
2022/10/30 01:08:20;;;;;;;16.03;9.27;;;11.40;94.10;;;11.48;61.83;95699.78;5041100;28;20455;-56
2022/10/30 01:10:48;;;;;;;12.90;9.60;;;11.40;94.50;;;11.44;61.60;95693.09;5043999;28;20559;-55
2022/10/30 01:13:15;;;;;;;16.47;9.17;;;11.30;94.20;;;11.41;61.82;95688.06;5037509;28;20557;-56
2022/10/30 01:15:49;;;;;;;11.30;8.40;;;11.30;94.30;;;11.37;62.02;95685.81;5045504;28;20509;-54
2022/10/30 01:18:33;;;;;;;14.77;8.60;;;11.20;94.40;;;11.32;61.95;95688.81;5035681;28;20454;-53
2022/10/30 01:21:11;;;;;;;15.83;8.87;;;11.20;94.40;;;11.29;62.65;95682.03;5037920;28;20445;-54
2022/10/30 01:23:48;;;;;;;13.97;9.30;;;11.20;95.10;;;11.23;62.52;95681.66;5045382;28;20486;-54
2022/10/30 01:26:25;;;;;;;13.30;8.80;;;11.10;94.90;;;11.22;62.15;95683.47;5043311;28;20436;-54
2022/10/30 01:29:18;;;;;;;12.60;8.80;;;11.10;94.60;;;11.20;62.55;95684.53;5041702;28;20475;-54
2022/10/30 01:31:56;;;;;;;14.97;9.23;;;11.00;94.60;;;11.17;62.28;95684.78;5043003;28;20443;-55
2022/10/30 01:34:30;;;;;;;13.10;9.00;;;11.00;94.60;;;11.13;62.77;95678.94;5040950;28;20487;-54
2022/10/30 01:37:01;;;;;;;13.63;8.70;;;11.00;95.00;;;11.10;62.60;95682.63;5033627;28;21057;-54
2022/10/30 01:39:29;;;;;;;9.20;8.03;;;11.00;95.00;;;11.08;62.92;95681.09;5041891;28;20546;-55
2022/10/30 01:41:56;;;;;;;22.77;9.40;;;10.90;95.30;;;11.07;63.26;95684.69;5039805;28;20468;-56
2022/10/30 01:44:28;;;;;;;14.90;8.70;;;10.90;95.40;;;11.05;62.70;95676.09;5043039;28;20476;-54
2022/10/30 01:47:20;;;;;;;15.90;8.80;;;10.90;95.20;;;11.04;63.38;95669.97;5042592;28;20445;-54
2022/10/30 01:50:23;;;;;;;22.37;9.60;;;10.90;95.20;;;11.03;63.02;95683.25;5038687;28;20876;-54
2022/10/30 01:52:55;;;;;;;13.17;8.70;;;10.90;95.20;;;11.02;62.80;95686.88;5042888;28;20503;-54
2022/10/30 01:55:32;;;;;;;13.73;9.90;;;10.90;95.10;;;11.00;62.93;95688.75;5043498;28;20472;-56
2022/10/30 01:58:16;;;;;;;14.20;9.80;;;10.90;95.30;;;10.99;62.83;95674.78;5036706;28;20801;-55
2022/10/30 02:00:44;;;;;;;14.77;9.00;;;10.80;95.20;;;10.96;62.91;95672.38;5038303;28;20558;-54
2022/10/30 02:03:11;;;;;;;18.40;10.47;;;10.80;95.40;;;10.94;62.86;95679.56;5042203;28;20451;-55
2022/10/30 02:05:44;;;;;;;13.37;9.10;;;10.80;95.20;;;10.92;63.16;95673.56;5040477;28;20448;-54
2022/10/30 02:08:11;;;;;;;13.70;9.13;;;10.80;95.50;;;10.91;62.78;95675.38;5043506;28;20440;-53
2022/10/30 02:10:38;;;;;;;13.10;9.33;;;10.80;95.30;;;10.89;63.20;95673.81;5042403;28;20491;-55
2022/10/30 02:13:06;;;;;;;13.60;9.63;;;10.80;95.60;;;10.85;62.81;95673.25;5040304;28;20500;-56
2022/10/30 02:15:33;;;;;;;17.27;9.30;;;10.70;95.30;;;10.84;62.76;95668.09;5043967;28;20504;-55
2022/10/30 02:18:01;;;;;;;14.83;10.50;;;10.70;95.30;;;10.81;62.96;95665.72;5040482;28;20470;-54
2022/10/30 02:20:29;;;;;;;21.90;10.17;;;10.70;95.40;;;10.78;62.83;95661.50;5042616;28;20475;-53
2022/10/30 02:22:57;;;;;;;16.60;10.07;;;10.70;95.10;;;10.74;63.06;95658.28;5041803;28;20452;-53
2022/10/30 02:25:24;;;;;;;19.67;9.33;;;10.60;95.50;;;10.71;63.08;95655.09;5044712;28;20813;-55
2022/10/30 02:27:51;;;;;;;12.40;9.73;;;10.60;95.40;;;10.67;63.38;95657.09;5044055;28;20956;-55
2022/10/30 02:30:18;;;;;;;15.73;9.70;;;10.60;95.70;;;10.65;63.01;95651.13;5035219;28;20488;-54
2022/10/30 02:32:46;;;;;;;16.57;9.00;;;10.50;95.50;;;10.65;62.96;95661.66;5041781;28;20526;-53
2022/10/30 02:35:13;;;;;;;14.00;9.17;;;10.50;95.40;;;10.63;63.15;95649.56;5040789;28;20667;-53
2022/10/30 02:37:42;;;;;;;10.20;8.07;;;10.50;96.00;;;10.59;63.20;95654.25;5039801;28;20449;-54
2022/10/30 02:40:11;;;;;;;25.43;7.77;;;10.50;95.50;;;10.57;63.33;95659.63;5043542;28;20513;-55
2022/10/30 02:42:38;;;;;;;10.53;7.57;;;10.50;95.60;;;10.54;63.23;95656.41;5036049;28;20498;-56
2022/10/30 02:45:06;;;;;;;12.57;8.17;;;10.40;95.50;;;10.51;63.47;95656.66;5041744;28;20514;-54
2022/10/30 02:47:34;;;;;;;13.43;7.80;;;10.40;95.50;;;10.48;63.48;95656.88;5043243;28;20452;-55
2022/10/30 02:50:01;;;;;;;9.77;8.10;;;10.40;95.60;;;10.45;63.32;95660.59;5041894;28;20488;-53
2022/10/30 02:52:28;;;;;;;12.87;7.70;;;10.40;95.70;;;10.45;63.93;95662.38;5043221;28;20491;-55
2022/10/30 02:54:57;;;;;;;8.97;7.63;;;10.40;96.10;;;10.43;63.49;95664.31;5042425;28;21087;-54
2022/10/30 02:57:24;;;;;;;10.60;8.73;;;10.30;95.70;;;10.42;63.50;95657.38;5045034;28;20897;-52
2022/10/30 02:59:51;;;;;;;13.60;8.23;;;10.30;96.00;;;10.42;63.84;95670.50;5039519;28;20465;-54
2022/10/30 03:02:18;;;;;;;7.90;7.10;;;10.30;96.10;;;10.40;64.07;95668.00;5043884;28;20463;-54
2022/10/30 03:04:46;;;;;;;8.43;7.53;;;10.30;96.10;;;10.38;63.74;95668.13;5040090;28;20493;-56
2022/10/30 03:07:13;;;;;;;10.33;7.50;;;10.30;96.10;;;10.37;63.87;95670.88;5041987;28;20459;-57
2022/10/30 03:09:40;;;;;;;12.83;7.50;;;10.30;96.30;;;10.34;63.77;95669.31;5041762;28;20476;-53
2022/10/30 03:12:09;;;;;;;15.47;7.67;;;10.20;96.10;;;10.32;63.73;95667.72;5045283;28;20826;-54
2022/10/30 03:14:36;;;;;;;9.43;7.57;;;10.20;96.00;;;10.30;63.74;95680.16;5039501;28;20476;-52
2022/10/30 03:17:03;;;;;;;8.87;7.70;;;10.20;96.00;;;10.27;63.56;95670.72;5043736;28;20522;-55
2022/10/30 03:19:31;;;;;;;7.90;7.10;;;10.20;96.20;;;10.26;63.97;95670.84;5040297;28;21014;-56
2022/10/30 03:21:58;;;;;;;7.70;7.00;;;10.20;96.40;;;10.24;64.28;95668.31;5042267;28;20452;-54
2022/10/30 03:24:26;;;;;;;9.43;7.30;;;10.20;96.40;;;10.20;64.87;95674.75;5040910;28;20996;-55
2022/10/30 03:26:53;;;;;;;7.40;6.70;;;10.10;97.00;;;10.17;64.38;95680.25;5044229;28;20571;-55
2022/10/30 03:29:21;;;;;;;13.17;7.20;;;10.10;96.50;;;10.14;65.07;95672.59;5040098;28;20479;-54
2022/10/30 03:31:49;;;;;;;14.03;7.33;;;10.10;97.10;;;10.10;65.38;95679.03;5042272;28;20447;-55
2022/10/30 03:34:16;;;;;;;9.60;8.47;;;10.00;97.20;;;10.05;65.79;95679.38;5039919;28;20507;-55
2022/10/30 03:36:43;;;;;;;10.70;7.77;;;10.00;97.70;;;10.04;65.21;95683.81;5040948;28;20498;-55
2022/10/30 03:39:11;;;;;;;16.20;9.40;;;9.90;97.60;;;10.02;65.57;95684.88;5036740;28;20471;-55
2022/10/30 03:41:38;;;;;;;10.37;7.53;;;9.90;97.90;;;9.98;65.03;95672.94;5037173;28;20824;-54
2022/10/30 03:44:05;;;;;;;10.30;8.73;;;9.90;97.60;;;9.96;65.49;95673.06;5044864;28;20833;-56
2022/10/30 03:46:34;;;;;;;10.83;8.40;;;9.90;97.90;;;9.92;64.95;95666.34;5046374;28;20893;-53
2022/10/30 03:49:05;;;;;;;10.93;8.50;;;9.80;97.60;;;9.91;66.08;95674.34;5046536;28;20514;-56
2022/10/30 03:51:32;;;;;;;10.60;7.67;;;9.80;98.20;;;9.90;65.68;95670.91;5037903;28;20972;-55
2022/10/30 03:54:00;;;;;;;10.57;7.47;;;9.80;98.30;;;9.90;65.24;95684.03;5045897;28;20502;-53
2022/10/30 03:56:27;;;;;;;11.07;8.53;;;9.80;98.00;;;9.93;65.67;95677.69;5046209;28;20769;-54
2022/10/30 03:58:54;;;;;;;12.73;7.87;;;9.80;98.30;;;9.93;65.65;95656.66;5045132;28;20471;-56
2022/10/30 04:01:21;;;;;;;9.40;7.97;;;9.80;98.20;;;9.94;65.36;95658.34;5043894;28;21001;-54
2022/10/30 04:03:50;;;;;;;10.70;8.40;;;9.80;98.20;;;9.95;65.79;95660.84;5046389;28;20487;-55
2022/10/30 04:06:17;;;;;;;12.00;7.73;;;9.80;98.10;;;9.93;65.56;95654.91;5042906;28;20514;-56
2022/10/30 04:08:44;;;;;;;10.47;8.03;;;9.90;98.10;;;9.96;66.08;95672.19;5046272;28;20472;-54
2022/10/30 04:11:13;;;;;;;13.30;8.57;;;9.80;98.40;;;9.96;65.56;95669.56;5042808;28;20452;-55
2022/10/30 04:13:40;;;;;;;11.90;8.40;;;9.90;98.30;;;9.96;66.05;95670.44;5044895;28;20573;-56
2022/10/30 04:16:08;;;;;;;11.27;7.77;;;9.90;98.50;;;9.99;65.66;95670.19;5043119;28;20453;-54
2022/10/30 04:18:35;;;;;;;10.40;7.90;;;9.90;98.30;;;10.00;65.41;95668.41;5043292;28;20525;-55
2022/10/30 04:21:04;;;;;;;13.30;7.80;;;9.90;98.20;;;10.01;65.21;95667.44;5044524;28;20491;-55
2022/10/30 04:23:31;;;;;;;11.40;7.73;;;9.90;98.00;;;10.02;65.02;95661.22;5045520;28;20451;-55
2022/10/30 04:26:00;;;;;;;14.27;7.80;;;9.90;98.00;;;10.04;65.23;95665.41;5044327;28;20459;-54
2022/10/30 04:28:28;;;;;;;16.23;8.33;;;9.90;97.90;;;10.05;65.00;95672.38;5040537;28;20483;-54
2022/10/30 04:30:56;;;;;;;9.27;7.03;;;9.90;97.90;;;10.06;65.16;95657.41;5043006;28;20567;-54
2022/10/30 04:33:23;;;;;;;9.37;7.90;;;9.90;97.80;;;10.08;64.83;95667.81;5045770;28;20495;-57
2022/10/30 04:35:50;;;;;;;14.67;8.50;;;9.90;97.80;;;10.09;64.75;95672.13;5043905;28;20456;-55
2022/10/30 04:38:19;;;;;;;15.00;8.30;;;10.00;97.30;;;10.07;64.78;95672.25;5041718;28;20448;-55
2022/10/30 04:40:46;;;;;;;18.70;7.97;;;10.00;97.10;;;10.07;64.83;95655.63;5041955;28;20801;-55
2022/10/30 04:43:14;;;;;;;9.90;8.10;;;9.90;97.60;;;10.07;64.84;95655.63;5041537;28;20467;-55
2022/10/30 04:45:41;;;;;;;20.80;8.80;;;9.90;97.60;;;10.05;64.82;95663.63;5044069;28;20455;-55
2022/10/30 04:48:10;;;;;;;12.50;8.77;;;9.90;97.90;;;10.03;64.98;95671.63;5046876;28;20470;-56
2022/10/30 04:50:38;;;;;;;13.17;8.47;;;9.90;97.70;;;9.97;64.54;95672.09;5040790;28;20455;-53
2022/10/30 04:53:06;;;;;;;12.97;7.67;;;9.90;97.60;;;9.91;64.46;95671.72;5043935;28;20517;-54
2022/10/30 04:55:35;;;;;;;9.57;8.47;;;9.90;97.90;;;9.84;65.42;95669.56;5043567;28;20971;-55
2022/10/30 04:58:02;;;;;;;14.87;8.30;;;9.80;97.80;;;9.77;64.76;95673.59;5043251;28;20475;-56
2022/10/30 05:00:30;;;;;;;12.73;8.23;;;9.70;97.50;;;9.75;65.37;95670.25;5045180;28;20499;-54
2022/10/30 05:03:00;;;;;;;11.30;8.47;;;9.70;97.90;;;9.76;65.31;95676.31;5039652;28;21027;-56
2022/10/30 05:05:27;;;;;;;12.90;7.87;;;9.70;97.90;;;9.77;64.82;95675.38;5036921;28;20506;-54
2022/10/30 05:07:55;;;;;;;9.97;7.50;;;9.70;97.80;;;9.75;65.41;95679.94;5042489;28;20459;-55
2022/10/30 05:10:22;;;;;;;13.97;8.13;;;9.70;98.00;;;9.73;65.63;95682.66;5045324;28;20854;-57
2022/10/30 05:12:51;;;;;;;13.87;8.83;;;9.70;98.20;;;9.74;65.29;95678.25;5043025;28;20448;-54
2022/10/30 05:15:19;;;;;;;16.33;8.40;;;9.70;98.10;;;9.77;65.65;95694.59;5044204;28;20475;-55
2022/10/30 05:17:46;;;;;;;13.27;8.60;;;9.70;98.40;;;9.81;65.37;95685.56;5037979;28;20518;-56
2022/10/30 05:20:13;;;;;;;14.10;9.53;;;9.70;98.00;;;9.83;65.31;95685.44;5037794;28;20537;-55
2022/10/30 05:22:40;;;;;;;27.67;9.07;;;9.70;98.10;;;9.84;65.41;95687.94;5036635;28;20449;-57
2022/10/30 05:25:09;;;;;;;21.17;9.33;;;9.70;98.40;;;9.87;65.10;95694.78;5032808;28;20481;-55
2022/10/30 05:27:36;;;;;;;16.00;9.00;;;9.80;98.00;;;9.91;65.15;95693.56;5039899;28;20460;-55
2022/10/30 05:30:06;;;;;;;16.70;9.73;;;9.80;98.10;;;9.96;64.76;95685.34;5034516;28;20840;-58
2022/10/30 05:32:34;;;;;;;14.70;8.87;;;9.80;97.90;;;10.00;64.81;95689.41;5039679;28;20451;-56
2022/10/30 05:35:01;;;;;;;23.17;9.27;;;9.90;97.70;;;10.02;64.88;95696.25;5045766;28;20500;-54
2022/10/30 05:37:28;;;;;;;11.90;9.07;;;9.90;97.80;;;10.09;64.74;95696.59;5038621;28;20895;-55
2022/10/30 05:39:55;;;;;;;46.23;9.60;;;10.00;97.40;;;10.17;64.90;95686.34;5044514;28;20495;-56
2022/10/30 05:42:23;;;;;;;16.53;8.60;;;10.00;97.20;;;10.25;64.48;95688.38;5037677;28;20543;-56
2022/10/30 05:44:50;;;;;;;11.47;8.50;;;10.10;97.30;;;10.35;64.54;95685.94;5042974;28;21045;-56
2022/10/30 05:47:19;;;;;;;19.10;10.33;;;10.20;97.20;;;10.44;64.39;95679.97;5041744;28;20518;-56
2022/10/30 05:49:46;;;;;;;22.03;10.77;;;10.30;97.30;;;10.64;64.34;95681.00;5044960;28;20472;-57
2022/10/30 05:52:13;;;;;;;12.70;9.23;;;10.40;97.30;;;10.98;63.85;95696.78;5045068;28;20460;-57
2022/10/30 05:54:40;;;;;;;24.43;9.90;;;10.70;97.30;;;11.42;63.15;95691.56;5036078;28;20906;-55
2022/10/30 05:57:08;;;;;;;17.37;9.63;;;11.00;97.00;;;11.90;62.60;95693.75;5042394;28;20545;-57
2022/10/30 05:59:35;;;;;;;16.60;9.60;;;11.40;96.60;;;12.42;61.33;95688.53;5041703;28;20476;-55
2022/10/30 06:02:02;;;;;;;14.40;9.70;;;11.90;96.10;;;12.96;60.35;95688.34;5042846;28;20844;-55
2022/10/30 06:04:31;;;;;;;29.53;9.30;;;12.40;95.70;;;13.50;59.33;95689.75;5043463;28;20506;-57
2022/10/30 06:06:58;;;;;;;22.30;9.17;;;13.00;94.60;;;14.01;58.02;95693.09;5043660;28;20517;-54
2022/10/30 06:09:26;;;;;;;14.00;8.43;;;13.50;93.70;;;14.55;57.50;95688.13;5042453;28;20471;-58
2022/10/30 06:11:53;;;;;;;12.67;8.60;;;14.00;93.00;;;15.11;56.13;95686.38;5043732;28;20525;-56
2022/10/30 06:14:21;;;;;;;13.97;7.67;;;14.60;92.20;;;15.66;55.31;95685.50;5041909;28;20552;-56
2022/10/30 06:16:48;;;;;;;14.83;7.67;;;15.10;91.30;;;16.20;54.32;95681.97;5040834;28;20452;-56
2022/10/30 06:19:15;;;;;;;15.40;7.90;;;15.60;90.40;;;16.74;52.90;95689.78;5029844;28;21011;-55
2022/10/30 06:21:44;;;;;;;11.57;8.30;;;16.10;88.40;;;17.27;51.97;95685.25;5036740;28;20945;-54
2022/10/30 06:24:11;;;;;;;9.17;8.07;;;16.70;86.20;;;17.79;51.25;95686.88;5029376;28;20541;-55
2022/10/30 06:26:38;;;;;;;12.17;7.57;;;17.10;83.30;;;18.32;50.17;95685.56;5037667;28;20452;-53
2022/10/30 06:29:06;;;;;;;10.20;7.73;;;17.70;82.50;;;18.86;49.43;95685.00;5034725;28;20565;-55
2022/10/30 06:31:33;;;;;;;16.93;8.20;;;18.20;79.60;;;19.36;47.96;95690.97;5036880;28;20467;-56
2022/10/30 06:34:00;;;;;;;15.10;8.53;;;18.70;77.30;;;19.84;47.94;95685.56;5036119;28;20558;-55
2022/10/30 06:36:28;;;;;;;14.63;8.40;;;19.20;76.10;;;20.33;47.00;95693.19;5036927;28;20460;-55
2022/10/30 06:38:56;;;;;;;12.90;8.37;;;19.70;74.30;;;20.84;46.02;95691.75;5037312;28;20464;-56
2022/10/30 06:41:24;;;;;;;14.70;8.10;;;20.20;72.30;;;21.33;44.80;95682.31;5042420;28;21053;-56
2022/10/30 06:43:51;;;;;;;10.73;8.23;;;20.70;69.60;;;21.75;43.84;95683.44;5041849;28;20475;-55
2022/10/30 06:46:18;;;;;;;11.27;7.80;;;21.10;66.30;;;22.16;44.17;95704.28;5043108;28;20460;-53
2022/10/30 06:48:46;;;;;;;11.90;7.40;;;21.50;66.60;;;22.56;43.66;95702.78;5042615;28;20472;-53
2022/10/30 06:51:14;;;;;;;12.53;7.20;;;21.90;64.70;;;22.99;42.26;95703.69;5044756;28;20452;-55
2022/10/30 06:53:41;;;;;;;12.20;8.10;;;22.30;63.40;;;23.35;41.32;95700.84;5039885;28;20578;-55
2022/10/30 06:56:10;;;;;;;12.37;8.40;;;22.70;60.20;;;23.73;41.04;95692.31;5044431;28;20865;-56
2022/10/30 06:58:38;;;;;;;11.40;7.80;;;23.00;59.90;;;24.12;40.16;95692.63;5041438;28;20525;-56
2022/10/30 07:01:06;;;;;;;13.00;9.07;;;23.50;58.80;;;24.54;39.96;95693.31;5042362;28;20848;-55
2022/10/30 07:03:33;;;;;;;13.83;9.40;;;23.90;58.40;;;24.92;38.93;95700.75;5038565;28;20566;-58
2022/10/30 07:06:00;;;;;;;12.97;8.93;;;24.30;55.80;;;25.35;37.54;95697.56;5040515;28;21003;-58
2022/10/30 07:08:28;;;;;;;12.50;8.83;;;24.80;55.10;;;25.75;37.85;95694.72;5041314;28;20513;-57
2022/10/30 07:10:57;;;;;;;18.43;8.30;;;25.30;54.60;;;26.18;36.64;95698.66;5042750;28;20940;-54
2022/10/30 07:13:25;;;;;;;11.57;8.33;;;25.80;53.70;;;26.61;36.37;95695.22;5042530;28;20542;-55
2022/10/30 07:15:53;;;;;;;27.60;10.43;;;26.30;52.20;;;27.00;35.41;95687.00;5034350;28;20534;-56
2022/10/30 07:18:20;;;;;;;10.30;9.23;;;26.80;51.90;;;27.19;35.00;95688.69;5045390;28;20443;-56
2022/10/30 07:20:47;;;;;;;16.43;9.30;;;27.30;50.50;;;27.39;34.27;95684.13;5039283;28;20447;-54
2022/10/30 07:23:14;;;;;;;17.00;9.27;;;27.60;48.90;;;27.66;33.69;95674.66;5044818;28;21000;-55
2022/10/30 07:25:42;;;;;;;15.67;9.47;;;27.90;48.00;;;28.01;33.84;95665.06;5044320;28;20463;-56
2022/10/30 07:28:09;;;;;;;22.20;10.37;;;28.30;47.50;;;28.31;33.43;95673.16;5046535;28;20458;-55
2022/10/30 07:30:38;;;;;;;12.00;9.90;;;28.60;46.90;;;28.36;32.66;95669.75;5044003;28;20491;-55
2022/10/30 07:33:06;;;;;;;41.33;9.83;;;28.70;46.20;;;28.33;32.15;95672.94;5045499;28;20455;-55
2022/10/30 07:35:35;;;;;;;374.80;27.07;;;28.70;45.80;;;28.35;31.93;95668.94;5046012;28;20530;-55
2022/10/30 07:38:03;;;;;;;18.73;9.37;;;28.60;45.60;;;28.40;32.63;95668.25;5044283;28;20952;-56
2022/10/30 07:40:30;;;;;;;11.83;8.30;;;28.50;45.40;;;28.31;32.24;95666.94;5043847;28;20543;-60
2022/10/30 07:42:58;;;;;;;17.60;10.93;;;28.30;45.10;;;28.22;31.66;95664.53;5042671;28;20459;-54
2022/10/30 07:45:25;;;;;;;16.23;10.13;;;28.10;44.90;;;28.21;31.56;95657.50;5044656;28;20870;-56
2022/10/30 07:47:54;;;;;;;10.93;9.17;;;28.00;45.10;;;28.29;32.05;95655.50;5036678;28;20447;-56
2022/10/30 07:50:23;;;;;;;22.13;10.20;;;28.00;45.10;;;28.33;31.91;95654.00;5045558;28;20482;-56
2022/10/30 07:52:50;;;;;;;13.40;10.53;;;28.00;45.00;;;28.29;31.69;95658.19;5044974;28;20459;-55
2022/10/30 07:55:17;;;;;;;14.17;10.13;;;28.00;44.70;;;28.23;31.46;95655.38;5044172;28;20510;-55
2022/10/30 07:57:45;;;;;;;13.60;9.87;;;27.90;44.80;;;28.31;31.61;95648.00;5047189;28;21032;-57
2022/10/30 08:00:14;;;;;;;16.23;9.77;;;27.90;45.00;;;28.48;32.25;95642.72;5039194;28;20471;-57
2022/10/30 08:02:41;;;;;;;12.47;9.70;;;28.00;45.30;;;28.67;32.10;95643.47;5044326;28;20451;-55
2022/10/30 08:05:10;;;;;;;12.33;8.40;;;28.20;45.10;;;28.85;32.01;95637.94;5040243;28;20769;-63
2022/10/30 08:07:38;;;;;;;10.73;8.50;;;28.30;45.00;;;29.09;31.79;95637.91;5045115;28;20454;-56
2022/10/30 08:10:06;;;;;;;13.50;10.20;;;28.50;44.70;;;29.23;31.45;95636.59;5044430;28;20475;-57
2022/10/30 08:12:34;;;;;;;19.07;9.77;;;28.70;44.40;;;29.20;31.03;95637.09;5047160;28;20451;-56
2022/10/30 08:15:01;;;;;;;11.03;8.70;;;28.70;43.70;;;29.06;30.89;95638.38;5046449;28;20491;-57
2022/10/30 08:17:28;;;;;;;23.50;10.90;;;28.60;43.60;;;29.09;31.46;95635.19;5037475;28;20458;-57
2022/10/30 08:19:56;;;;;;;18.93;10.10;;;28.50;44.20;;;29.12;30.97;95632.00;5044020;28;20529;-57
2022/10/30 08:22:25;;;;;;;12.93;9.50;;;28.50;44.20;;;29.10;31.87;95626.84;5043083;28;20774;-56
2022/10/30 08:24:52;;;;;;;14.57;10.30;;;28.50;44.20;;;29.06;32.09;95630.25;5044557;28;20494;-56
2022/10/30 08:27:19;;;;;;;20.80;9.47;;;28.50;44.90;;;29.05;31.75;95628.59;5043855;28;20455;-58
2022/10/30 08:29:47;;;;;;;18.70;9.80;;;28.50;44.80;;;28.99;31.88;95630.38;5038477;28;20474;-59
2022/10/30 08:32:14;;;;;;;12.27;9.50;;;28.40;44.60;;;28.91;32.24;95628.06;5044467;28;20471;-58
2022/10/30 08:34:41;;;;;;;22.43;9.77;;;28.40;44.70;;;28.82;31.79;95630.28;5045515;28;20562;-55
2022/10/30 08:37:08;;;;;;;14.50;8.80;;;28.30;45.00;;;28.73;32.33;95629.00;5041226;28;20475;-57
2022/10/30 08:39:37;;;;;;;17.93;9.47;;;28.20;44.90;;;28.67;32.54;95624.53;5041671;28;20471;-56
2022/10/30 08:42:05;;;;;;;14.13;8.80;;;28.10;45.10;;;28.65;32.38;95629.34;5041465;28;20460;-57
2022/10/30 08:44:32;;;;;;;18.40;12.03;;;28.00;45.30;;;28.69;31.59;95625.09;5046577;28;20466;-58
2022/10/30 08:46:59;;;;;;;11.17;9.30;;;28.10;44.60;;;28.68;32.23;95623.47;5044980;28;20549;-55
2022/10/30 08:49:26;;;;;;;16.53;9.43;;;28.00;45.40;;;28.67;32.02;95621.81;5045327;28;20471;-57
2022/10/30 08:51:54;;;;;;;10.50;9.27;;;28.00;45.30;;;28.69;31.74;95627.81;5042971;28;20517;-56
2022/10/30 08:54:21;;;;;;;17.60;9.50;;;28.00;45.00;;;28.66;31.93;95626.41;5044476;28;20505;-56
2022/10/30 08:56:50;;;;;;;10.90;7.70;;;27.90;44.20;;;28.61;32.33;95623.56;5044407;28;20452;-56
2022/10/30 08:59:17;;;;;;;13.20;9.23;;;27.90;45.80;;;28.63;31.44;95621.47;5045853;28;21007;-57
2022/10/30 09:01:46;;;;;;;13.33;9.70;;;27.90;44.70;;;28.62;31.82;95614.41;5038266;28;20455;-58
2022/10/30 09:04:13;;;;;;;13.20;10.10;;;27.90;44.70;;;28.56;31.94;95613.41;5045838;28;20483;-57
2022/10/30 09:06:40;;;;;;;18.13;10.90;;;27.80;44.40;;;28.55;32.11;95603.66;5042037;28;20945;-53
2022/10/30 09:09:08;;;;;;;20.83;9.97;;;27.80;44.80;;;28.59;32.49;95606.75;5043530;28;20482;-56
2022/10/30 09:11:35;;;;;;;16.30;11.13;;;27.80;45.20;;;28.64;32.40;95600.63;5043466;28;20960;-58
2022/10/30 09:14:04;;;;;;;12.73;9.00;;;27.80;45.20;;;28.70;32.45;95603.19;5038834;28;20474;-59
2022/10/30 09:16:31;;;;;;;16.23;9.83;;;27.90;45.80;;;28.79;31.11;95604.50;5043201;28;20447;-57
2022/10/30 09:18:58;;;;;;;14.20;9.53;;;27.90;44.20;;;28.85;32.55;95602.72;5044356;28;21045;-57
2022/10/30 09:21:25;;;;;;;11.50;8.50;;;28.00;45.00;;;28.93;32.25;95599.66;5042212;28;20474;-57
2022/10/30 09:23:53;;;;;;;16.43;9.10;;;28.10;45.10;;;29.01;31.63;95594.94;5042727;28;20480;-56
2022/10/30 09:26:20;;;;;;;16.10;8.50;;;28.20;44.70;;;29.06;31.57;95597.75;5043955;28;20451;-56
2022/10/30 09:28:47;;;;;;;23.00;12.13;;;28.20;44.40;;;29.15;31.25;95599.03;5043862;28;20475;-57
2022/10/30 09:31:16;;;;;;;15.50;11.60;;;28.30;44.10;;;29.23;31.74;95606.81;5045210;28;20508;-56
2022/10/30 09:33:43;;;;;;;22.03;10.93;;;28.40;44.10;;;29.31;31.12;95592.06;5042193;28;20479;-56
2022/10/30 09:36:10;;;;;;;17.70;10.13;;;28.50;44.20;;;29.37;31.73;95591.09;5044886;28;20497;-56
2022/10/30 09:38:39;;;;;;;17.43;9.83;;;28.50;44.20;;;29.47;31.03;95582.34;5041650;28;20524;-57
2022/10/30 09:41:29;;;;;;;20.83;9.53;;;28.60;44.30;;;29.55;30.84;95576.53;5041007;28;20470;-57
2022/10/30 09:44:08;;;;;;;10.60;9.53;;;28.70;43.70;;;29.58;31.62;95567.94;5041365;28;20480;-56
2022/10/30 09:47:01;;;;;;;14.03;8.03;;;28.80;43.90;;;29.59;31.35;95571.44;5040690;28;20431;-55
2022/10/30 09:49:52;;;;;;;8.03;7.13;;;28.80;44.10;;;29.64;31.26;95566.16;5041237;28;20467;-54
2022/10/30 09:52:29;;;;;;;12.43;7.10;;;28.80;44.00;;;29.69;30.59;95564.31;5042226;28;20447;-56
2022/10/30 09:55:15;;;;;;;8.73;6.50;;;28.90;43.90;;;29.79;31.09;95558.28;5042005;28;20574;-58
2022/10/30 09:57:48;;;;;;;7.70;6.20;;;29.00;43.80;;;29.90;31.08;95551.19;5042824;28;20493;-59
2022/10/30 10:00:17;;;;;;;11.90;8.27;;;29.10;44.00;;;29.99;31.36;95544.28;5043065;28;20540;-58
2022/10/30 10:03:01;;;;;;;15.97;7.77;;;29.20;43.60;;;30.09;30.16;95548.22;5044200;28;20447;-54
2022/10/30 10:05:40;;;;;;;8.93;7.03;;;29.30;43.20;;;30.17;30.29;95536.97;5042323;28;20475;-56
2022/10/30 10:08:10;;;;;;;6.60;5.30;;;29.40;43.40;;;30.28;30.04;95522.47;5042276;28;20521;-56
2022/10/30 10:10:39;;;;;;;8.57;5.50;;;29.50;43.10;;;30.38;30.87;95522.63;5035673;28;20474;-52
2022/10/30 10:13:09;;;;;;;12.47;6.47;;;29.60;43.00;;;30.45;29.79;95516.22;5042745;28;20966;-57
2022/10/30 10:15:40;;;;;;;9.73;4.83;;;29.70;42.20;;;30.36;29.50;95511.19;5037713;28;20856;-55
2022/10/30 10:18:17;;;;;;;8.07;5.40;;;29.70;42.50;;;30.32;30.59;95517.34;5038245;28;20188;-54
2022/10/30 10:20:45;;;;;;;8.87;6.07;;;29.60;42.60;;;30.36;29.70;95508.47;5036797;28;20459;-55
2022/10/30 10:23:17;;;;;;;10.80;5.70;;;29.60;42.20;;;30.45;29.88;95506.19;5042450;28;20455;-56